Time;durP1;ratioP1;P1;durP2;ratioP2;P2;SDS_P1;SDS_P2;PMS_P1;PMS_P2;Temp;Humidity;BMP_temperature;BMP_pressure;BME280_temperature;BME280_humidity;BME280_pressure;Samples;Min_cycle;Max_cycle;Signal;HPM_P1;HPM_P2
2022/04/09 00:01:16;;;;;;;6.60;1.10;;;3.70;99.90;;;;;;4875326;29;20498;-80
2022/04/09 00:03:42;;;;;;;9.00;1.05;;;4.60;99.90;;;;;;4860139;29;20056;-81
2022/04/09 00:06:07;;;;;;;7.28;1.10;;;4.40;99.90;;;;;;4874549;29;20049;-81
2022/04/09 00:08:33;;;;;;;5.28;1.23;;;4.30;99.90;;;;;;4860275;29;20411;-81
2022/04/09 00:10:59;;;;;;;9.27;1.50;;;3.80;99.90;;;;;;4874894;29;20586;-81
2022/04/09 00:13:24;;;;;;;11.52;1.35;;;3.80;99.90;;;;;;4859168;29;20052;-81
2022/04/09 00:15:50;;;;;;;12.45;1.40;;;3.80;99.90;;;;;;4874847;29;20383;-81
2022/04/09 00:18:16;;;;;;;6.30;1.52;;;3.80;99.90;;;;;;4874523;29;20508;-80
2022/04/09 00:20:42;;;;;;;8.77;1.63;;;3.80;99.90;;;;;;4874562;29;20486;-80
2022/04/09 00:23:10;;;;;;;8.98;1.48;;;3.90;99.90;;;;;;4875702;29;20045;-80
2022/04/09 00:25:36;;;;;;;13.07;1.88;;;3.90;99.90;;;;;;4858767;29;20045;-81
2022/04/09 00:28:02;;;;;;;9.38;1.85;;;4.00;99.90;;;;;;4874670;29;20045;-81
2022/04/09 00:30:27;;;;;;;10.73;1.63;;;4.10;99.90;;;;;;4858411;29;20060;-81
2022/04/09 00:32:53;;;;;;;14.50;2.05;;;4.20;99.90;;;;;;4874204;29;20049;-81
2022/04/09 00:35:19;;;;;;;10.27;1.92;;;4.70;99.90;;;;;;4874099;29;20464;-81
2022/04/09 00:37:46;;;;;;;12.52;2.25;;;4.20;99.90;;;;;;4859818;29;20041;-81
2022/04/09 00:40:13;;;;;;;9.90;1.63;;;4.20;99.90;;;;;;4873171;29;20049;-81
2022/04/09 00:42:42;;;;;;;15.45;2.20;;;4.10;99.90;;;;;;4875236;29;20080;-81
2022/04/09 00:45:09;;;;;;;11.45;2.65;;;4.10;99.90;;;;;;4858745;29;20044;-82
2022/04/09 00:47:35;;;;;;;16.50;2.10;;;4.00;99.90;;;;;;4861923;29;20088;-82
2022/04/09 00:50:02;;;;;;;12.65;2.13;;;4.80;99.90;;;;;;4861816;29;20076;-81
2022/04/09 00:52:32;;;;;;;16.42;1.75;;;4.00;99.90;;;;;;4861457;29;20049;-81
2022/04/09 00:55:01;;;;;;;6.75;1.50;;;4.00;99.90;;;;;;4861364;29;20409;-81
2022/04/09 00:57:27;;;;;;;13.32;1.48;;;4.00;99.90;;;;;;4861144;29;20063;-81
2022/04/09 00:59:54;;;;;;;13.23;1.52;;;4.00;99.90;;;;;;4876926;29;20416;-81
2022/04/09 01:02:20;;;;;;;9.45;1.75;;;4.50;99.90;;;;;;4860454;29;20186;-82
2022/04/09 01:04:47;;;;;;;10.95;1.80;;;4.00;99.90;;;;;;4876982;29;20113;-81
2022/04/09 01:07:13;;;;;;;17.52;2.35;;;3.90;99.90;;;;;;4861378;29;20139;-81
2022/04/09 01:09:39;;;;;;;9.48;1.90;;;3.90;99.90;;;;;;4860908;29;20051;-80
2022/04/09 01:12:05;;;;;;;16.52;1.88;;;3.80;99.90;;;;;;4861308;29;20049;-80
2022/04/09 01:14:34;;;;;;;11.20;2.00;;;3.90;99.90;;;;;;4860835;29;20063;-81
2022/04/09 01:17:00;;;;;;;12.85;1.60;;;3.90;99.90;;;;;;4860913;29;20051;-81
2022/04/09 01:19:26;;;;;;;7.55;1.58;;;4.70;99.90;;;;;;4860850;29;20131;-80
2022/04/09 01:21:54;;;;;;;16.65;1.95;;;3.90;99.90;;;;;;4876313;29;20171;-80
2022/04/09 01:24:19;;;;;;;11.75;1.60;;;4.00;99.90;;;;;;4860728;29;20513;-80
2022/04/09 01:26:45;;;;;;;10.00;1.60;;;3.90;99.90;;;;;;4877622;29;20131;-81
2022/04/09 01:29:11;;;;;;;10.40;1.60;;;3.80;99.90;;;;;;4875045;29;20481;-81
2022/04/09 01:31:37;;;;;;;17.27;2.10;;;3.80;99.90;;;;;;4861086;29;20075;-81
2022/04/09 01:34:02;;;;;;;13.93;1.85;;;3.70;99.90;;;;;;4861016;29;20071;-80
2022/04/09 01:36:28;;;;;;;11.73;1.75;;;3.70;99.90;;;;;;4860106;29;20049;-81
2022/04/09 01:38:54;;;;;;;15.02;2.13;;;3.60;99.90;;;;;;4861180;29;20055;-81
2022/04/09 01:41:19;;;;;;;12.95;1.63;;;3.50;99.90;;;;;;4861075;29;20045;-81
2022/04/09 01:43:45;;;;;;;10.20;2.17;;;3.50;99.90;;;;;;4860260;29;20405;-82
2022/04/09 01:46:10;;;;;;;11.52;1.73;;;3.50;99.90;;;;;;4872757;29;20088;-81
2022/04/09 01:48:36;;;;;;;16.38;1.88;;;3.50;99.90;;;;;;4858317;29;20072;-81
2022/04/09 01:51:02;;;;;;;18.88;2.20;;;3.50;99.90;;;;;;4872244;29;20063;-81
2022/04/09 01:53:27;;;;;;;11.25;2.13;;;3.50;99.90;;;;;;4857665;29;20053;-81
2022/04/09 01:55:53;;;;;;;8.20;1.52;;;3.50;99.90;;;;;;4858027;29;20088;-81
2022/04/09 01:58:20;;;;;;;10.48;1.40;;;3.50;99.90;;;;;;4856963;29;20483;-81
2022/04/09 02:00:46;;;;;;;16.52;2.10;;;3.80;99.90;;;;;;4857159;29;20045;-81
2022/04/09 02:03:11;;;;;;;11.93;1.55;;;4.20;99.90;;;;;;4872995;29;20049;-86
2022/04/09 02:05:37;;;;;;;8.73;1.30;;;3.60;99.90;;;;;;4858195;29;20049;-85
2022/04/09 02:08:19;;;;;;;10.05;1.52;;;3.90;99.90;;;;;;4857161;29;20127;-84
2022/04/09 02:10:45;;;;;;;9.85;1.65;;;3.60;99.90;;;;;;4873236;29;20088;-84
2022/04/09 02:13:12;;;;;;;13.00;1.42;;;4.10;99.90;;;;;;4873094;29;20084;-83
2022/04/09 02:15:38;;;;;;;11.15;1.75;;;3.40;99.90;;;;;;4857439;29;20053;-85
2022/04/09 02:18:11;;;;;;;12.20;2.00;;;3.80;99.90;;;;;;4857215;29;20048;-83
2022/04/09 02:20:36;;;;;;;5.63;1.23;;;3.10;99.90;;;;;;4873077;29;20068;-83
2022/04/09 02:23:02;;;;;;;23.73;2.22;;;3.60;99.90;;;;;;4873526;29;20060;-83
2022/04/09 02:25:28;;;;;;;11.25;1.40;;;3.90;99.90;;;;;;4857254;29;20386;-83
2022/04/09 02:28:08;;;;;;;9.43;1.50;;;3.00;99.90;;;;;;4857909;29;20045;-83
2022/04/09 02:30:33;;;;;;;10.07;1.58;;;3.00;99.90;;;;;;4856732;29;20052;-82
2022/04/09 02:32:59;;;;;;;17.73;1.67;;;3.00;99.90;;;;;;4872733;29;20454;-82
2022/04/09 02:35:26;;;;;;;10.02;1.50;;;3.00;99.90;;;;;;4873146;29;20470;-83
2022/04/09 02:38:04;;;;;;;11.60;1.58;;;3.60;99.90;;;;;;4873424;29;20462;-82
2022/04/09 02:40:30;;;;;;;11.10;2.10;;;3.10;99.90;;;;;;4871906;29;20417;-84
2022/04/09 02:42:56;;;;;;;15.38;1.90;;;3.90;99.90;;;;;;4858488;29;20041;-84
2022/04/09 02:45:34;;;;;;;15.02;1.85;;;3.30;99.90;;;;;;4859017;29;20151;-83
2022/04/09 02:48:00;;;;;;;12.27;1.90;;;3.90;99.90;;;;;;4875747;29;20101;-82
2022/04/09 02:50:38;;;;;;;14.40;1.70;;;4.60;99.90;;;;;;4875528;29;20057;-83
2022/04/09 02:53:03;;;;;;;9.75;1.38;;;2.60;99.90;;;;;;4860343;29;20052;-82
2022/04/09 02:55:29;;;;;;;7.53;1.52;;;3.30;99.90;;;;;;4875665;29;20041;-82
2022/04/09 02:57:55;;;;;;;11.80;1.90;;;3.20;99.90;;;;;;4861138;29;20128;-82
2022/04/09 03:00:21;;;;;;;8.45;1.40;;;3.00;99.90;;;;;;4874553;29;20048;-82
2022/04/09 03:02:58;;;;;;;11.52;1.40;;;3.10;99.90;;;;;;4874042;29;20501;-82
2022/04/09 03:05:24;;;;;;;6.32;1.40;;;3.10;99.90;;;;;;4875856;29;20052;-81
2022/04/09 03:07:50;;;;;;;7.85;1.40;;;4.40;99.90;;;;;;4860405;29;20446;-82
2022/04/09 03:10:16;;;;;;;7.13;1.20;;;3.10;99.90;;;;;;4888582;29;20041;-81
2022/04/09 03:12:50;;;;;;;9.50;1.38;;;2.60;99.90;;;;;;4857911;29;20581;-81
2022/04/09 03:15:16;;;;;;;8.60;1.20;;;3.10;99.90;;;;;;4840436;29;20049;-81
2022/04/09 03:17:42;;;;;;;6.20;1.23;;;3.30;99.90;;;;;;4842395;29;20063;-81
2022/04/09 03:20:09;;;;;;;9.13;1.70;;;3.20;99.90;;;;;;4857960;29;20580;-81
2022/04/09 03:22:35;;;;;;;13.23;1.85;;;3.10;99.90;;;;;;4860402;29;20924;-81
2022/04/09 03:25:20;;;;;;;9.70;1.35;;;3.10;99.90;;;;;;4860361;29;20051;-81
2022/04/09 03:27:46;;;;;;;9.63;1.88;;;3.10;99.90;;;;;;4860833;29;20059;-80
2022/04/09 03:30:12;;;;;;;10.80;1.80;;;3.80;99.90;;;;;;4859025;29;20056;-81
2022/04/09 03:32:47;;;;;;;10.40;1.67;;;3.60;99.90;;;;;;4860875;29;20056;-80
2022/04/09 03:35:13;;;;;;;13.10;2.00;;;3.00;99.90;;;;;;4860048;29;20446;-81
2022/04/09 03:37:39;;;;;;;6.95;1.70;;;3.20;99.90;;;;;;4859944;29;20082;-80
2022/04/09 03:40:06;;;;;;;18.65;2.47;;;3.10;99.90;;;;;;4860596;29;20375;-80
2022/04/09 03:42:33;;;;;;;10.18;1.40;;;3.20;99.90;;;;;;4859111;29;20093;-80
2022/04/09 03:45:10;;;;;;;16.38;2.00;;;4.40;99.90;;;;;;4859436;29;20051;-80
2022/04/09 03:47:36;;;;;;;11.50;2.17;;;2.60;99.90;;;;;;4874010;29;20053;-80
2022/04/09 03:50:03;;;;;;;11.13;1.90;;;3.20;99.90;;;;;;4843527;29;20405;-80
2022/04/09 03:52:29;;;;;;;8.68;1.48;;;3.10;99.90;;;;;;4875520;29;20076;-79
2022/04/09 03:54:55;;;;;;;11.23;1.33;;;3.20;99.90;;;;;;4860174;29;20470;-80
2022/04/09 03:57:21;;;;;;;7.78;1.20;;;3.70;99.90;;;;;;4858834;29;20053;-80
2022/04/09 03:59:47;;;;;;;16.02;1.45;;;3.10;99.90;;;;;;4864357;29;20109;-80
2022/04/09 04:02:13;;;;;;;12.23;1.95;;;3.00;99.90;;;;;;4877684;29;20055;-79
2022/04/09 04:04:39;;;;;;;12.38;1.38;;;3.00;99.90;;;;;;4877496;29;20059;-80
2022/04/09 04:07:04;;;;;;;12.20;1.90;;;3.90;99.90;;;;;;4862485;29;20131;-80
2022/04/09 04:09:30;;;;;;;14.75;1.58;;;3.00;99.90;;;;;;4878182;29;20048;-80
2022/04/09 04:11:56;;;;;;;15.93;2.38;;;3.00;99.90;;;;;;4861893;29;20139;-80
2022/04/09 04:14:22;;;;;;;11.85;1.60;;;3.00;99.90;;;;;;4861672;29;20248;-80
2022/04/09 04:16:47;;;;;;;15.52;2.13;;;3.10;99.90;;;;;;4878400;29;20488;-79
2022/04/09 04:19:13;;;;;;;12.10;1.50;;;3.10;99.90;;;;;;4876810;29;20087;-80
2022/04/09 04:21:39;;;;;;;13.73;1.70;;;3.20;99.90;;;;;;4863249;29;20112;-80
2022/04/09 04:24:05;;;;;;;13.82;1.90;;;3.20;99.90;;;;;;4861929;29;20053;-80
2022/04/09 04:26:31;;;;;;;12.38;2.17;;;3.30;99.90;;;;;;4861770;29;20127;-80
2022/04/09 04:28:56;;;;;;;15.88;2.10;;;3.80;99.90;;;;;;4877385;29;20060;-80
2022/04/09 04:31:23;;;;;;;16.00;2.53;;;3.30;99.90;;;;;;4877009;29;20057;-80
2022/04/09 04:33:48;;;;;;;12.45;1.70;;;3.30;99.90;;;;;;4877460;29;20135;-80
2022/04/09 04:36:14;;;;;;;11.95;2.00;;;3.30;99.90;;;;;;4877317;29;20160;-80
2022/04/09 04:38:40;;;;;;;17.75;2.00;;;3.30;99.90;;;;;;4877633;29;20107;-80
2022/04/09 04:41:06;;;;;;;16.50;1.95;;;3.30;99.90;;;;;;4877071;29;20056;-80
2022/04/09 04:43:32;;;;;;;11.45;1.60;;;3.20;99.90;;;;;;4893504;29;20060;-80
2022/04/09 04:45:58;;;;;;;17.25;2.58;;;3.20;99.90;;;;;;4876210;29;20572;-80
2022/04/09 04:48:24;;;;;;;16.02;2.17;;;4.40;99.90;;;;;;4876954;29;20091;-80
2022/04/09 04:50:50;;;;;;;12.63;2.10;;;3.40;99.90;;;;;;4877398;29;20245;-80
2022/04/09 04:53:22;;;;;;;8.15;1.80;;;3.10;99.90;;;;;;4860493;29;20060;-80
2022/04/09 04:55:47;;;;;;;15.70;2.20;;;3.10;99.90;;;;;;4877492;29;20048;-80
2022/04/09 04:58:18;;;;;;;14.20;1.83;;;2.90;99.90;;;;;;4876593;29;20104;-79
2022/04/09 05:00:44;;;;;;;15.05;2.00;;;3.00;99.90;;;;;;4876105;29;20568;-80
2022/04/09 05:03:20;;;;;;;8.90;1.70;;;2.90;99.90;;;;;;4877048;29;20085;-80
2022/04/09 05:05:46;;;;;;;10.45;2.25;;;2.70;99.90;;;;;;4893059;29;20056;-80
2022/04/09 05:08:12;;;;;;;21.63;1.90;;;3.80;99.90;;;;;;4891541;29;20196;-80
2022/04/09 05:10:38;;;;;;;14.43;1.67;;;2.40;99.90;;;;;;4861938;29;20049;-80
2022/04/09 05:13:13;;;;;;;15.50;2.22;;;2.90;99.90;;;;;;4861263;29;20053;-80
2022/04/09 05:15:39;;;;;;;13.68;1.73;;;2.10;99.90;;;;;;4875957;29;20409;-81
2022/04/09 05:18:04;;;;;;;10.00;1.58;;;3.00;99.90;;;;;;4860958;29;20047;-80
2022/04/09 05:20:30;;;;;;;17.67;2.97;;;3.00;99.90;;;;;;4861601;29;20052;-80
2022/04/09 05:22:56;;;;;;;15.55;2.15;;;3.70;99.90;;;;;;4883054;29;20490;-80
2022/04/09 05:25:42;;;;;;;15.77;1.58;;;3.70;99.90;;;;;;4842002;29;20060;-80
2022/04/09 05:28:08;;;;;;;13.88;2.03;;;4.10;99.90;;;;;;4857198;29;20044;-80
2022/04/09 05:30:35;;;;;;;17.38;2.15;;;4.30;99.90;;;;;;4842491;29;20052;-81
2022/04/09 05:33:01;;;;;;;13.07;1.85;;;4.30;99.90;;;;;;4857870;29;20088;-80
2022/04/09 05:35:33;;;;;;;17.77;2.42;;;3.20;99.90;;;;;;4857377;29;20056;-81
2022/04/09 05:37:58;;;;;;;11.88;2.13;;;3.30;99.90;;;;;;4857885;29;20077;-81
2022/04/09 05:40:24;;;;;;;13.07;1.98;;;3.40;99.90;;;;;;4857689;29;20053;-81
2022/04/09 05:42:50;;;;;;;14.93;2.53;;;4.50;99.90;;;;;;4856532;29;20071;-80
2022/04/09 05:45:17;;;;;;;16.85;1.88;;;3.70;99.90;;;;;;4841782;29;20052;-81
2022/04/09 05:47:53;;;;;;;10.82;1.55;;;3.10;99.90;;;;;;4843209;29;20124;-80
2022/04/09 05:50:19;;;;;;;12.73;1.63;;;3.80;99.90;;;;;;4856869;29;20409;-80
2022/04/09 05:52:46;;;;;;;10.95;2.40;;;4.70;99.90;;;;;;4857680;29;20041;-81
2022/04/09 05:55:12;;;;;;;15.43;2.03;;;3.90;99.90;;;;;;4856892;29;20045;-81
2022/04/09 05:57:47;;;;;;;6.32;1.30;;;4.40;99.90;;;;;;4857816;29;20056;-81
2022/04/09 06:00:16;;;;;;;13.95;1.60;;;4.70;99.90;;;;;;4850637;29;20087;-81
2022/04/09 06:02:44;;;;;;;11.35;1.80;;;4.00;99.90;;;;;;4876610;29;20044;-81
2022/04/09 06:05:09;;;;;;;11.80;1.98;;;4.20;99.90;;;;;;4875448;29;20404;-81
2022/04/09 06:07:48;;;;;;;9.75;1.45;;;4.50;99.90;;;;;;4861270;29;20045;-81
2022/04/09 06:10:14;;;;;;;11.52;1.67;;;4.90;99.90;;;;;;4875193;29;20132;-81
2022/04/09 06:12:40;;;;;;;13.63;1.65;;;4.20;99.90;;;;;;4861016;29;20131;-81
2022/04/09 06:15:06;;;;;;;10.63;1.80;;;5.00;99.90;;;;;;4875677;29;20056;-82
2022/04/09 06:17:44;;;;;;;11.93;1.55;;;4.40;99.90;;;;;;4858302;29;20565;-81
2022/04/09 06:20:10;;;;;;;6.55;0.93;;;4.40;99.90;;;;;;4860481;29;20148;-82
2022/04/09 06:22:35;;;;;;;8.23;1.17;;;4.30;99.90;;;;;;4861464;29;20536;-82
2022/04/09 06:25:01;;;;;;;8.23;1.30;;;4.30;99.90;;;;;;4860373;29;20401;-82
2022/04/09 06:27:41;;;;;;;11.00;1.60;;;3.90;99.90;;;;;;4861130;29;20649;-82
2022/04/09 06:30:07;;;;;;;15.55;1.77;;;4.10;99.90;;;;;;4858846;29;20040;-81
2022/04/09 06:32:33;;;;;;;11.45;1.85;;;4.10;99.90;;;;;;4867618;29;20047;-81
2022/04/09 06:35:05;;;;;;;17.20;2.00;;;4.90;99.90;;;;;;4862093;29;20040;-81
2022/04/09 06:37:32;;;;;;;12.80;1.98;;;4.20;99.90;;;;;;4868780;29;20493;-81
2022/04/09 06:39:58;;;;;;;16.20;2.53;;;3.90;99.90;;;;;;4867446;29;20385;-81
2022/04/09 06:42:37;;;;;;;21.48;2.67;;;4.90;99.90;;;;;;4883581;29;20047;-80
2022/04/09 06:45:03;;;;;;;11.50;2.05;;;5.40;99.90;;;;;;4862965;29;20067;-81
2022/04/09 06:47:29;;;;;;;19.45;2.10;;;5.10;99.90;;;;;;4870182;29;20132;-81
2022/04/09 06:50:05;;;;;;;16.70;2.50;;;5.20;99.90;;;;;;4875246;29;20056;-81
2022/04/09 06:52:31;;;;;;;16.00;2.40;;;5.20;99.90;;;;;;4876625;29;20041;-81
2022/04/09 06:54:58;;;;;;;20.10;2.47;;;5.50;99.90;;;;;;4870173;29;20064;-81
2022/04/09 06:57:24;;;;;;;13.73;2.28;;;5.10;99.90;;;;;;4861215;29;20049;-81
2022/04/09 07:00:00;;;;;;;17.95;2.80;;;5.00;99.90;;;;;;4877715;29;20055;-82
2022/04/09 07:02:25;;;;;;;18.17;1.98;;;6.20;99.90;;;;;;4879490;29;20512;-81
2022/04/09 07:04:53;;;;;;;12.25;2.47;;;5.60;99.90;;;;;;4894126;29;20048;-82
2022/04/09 07:07:21;;;;;;;20.80;2.78;;;5.40;99.90;;;;;;4878817;29;20056;-82
2022/04/09 07:10:07;;;;;;;34.50;2.67;;;5.20;99.90;;;;;;4882237;29;20502;-81
2022/04/09 07:12:32;;;;;;;18.35;2.42;;;5.40;99.90;;;;;;4866271;29;20208;-81
2022/04/09 07:14:58;;;;;;;15.23;2.13;;;5.80;99.90;;;;;;4871905;29;20147;-82
2022/04/09 07:17:38;;;;;;;25.60;2.67;;;6.70;99.90;;;;;;4889742;29;20148;-83
2022/04/09 07:20:07;;;;;;;15.10;1.80;;;5.90;99.90;;;;;;4872349;29;20053;-81
2022/04/09 07:22:35;;;;;;;20.13;2.35;;;5.90;99.90;;;;;;4867522;29;20041;-81
2022/04/09 07:25:13;;;;;;;15.13;2.50;;;5.70;99.90;;;;;;4884698;29;20112;-83
2022/04/09 07:27:41;;;;;;;17.75;2.88;;;5.60;99.90;;;;;;4869969;29;20124;-81
2022/04/09 07:30:27;;;;;;;14.25;2.30;;;5.80;99.90;;;;;;4868319;29;20119;-82
2022/04/09 07:32:57;;;;;;;19.38;2.53;;;5.60;99.90;;;;;;4882773;29;20060;-81
2022/04/09 07:35:22;;;;;;;16.85;2.63;;;6.10;99.90;;;;;;4864720;29;20042;-84
2022/04/09 07:38:03;;;;;;;12.80;2.20;;;5.90;99.90;;;;;;4879050;29;20048;-82
2022/04/09 07:40:28;;;;;;;11.23;2.50;;;5.60;99.90;;;;;;4878627;29;20511;-81
2022/04/09 07:42:55;;;;;;;17.13;1.70;;;6.30;99.90;;;;;;4862957;29;20131;-82
2022/04/09 07:45:21;;;;;;;12.23;1.70;;;6.50;99.90;;;;;;4877402;29;20156;-82
2022/04/09 07:48:00;;;;;;;15.10;2.38;;;6.60;99.90;;;;;;4863273;29;20092;-82
2022/04/09 07:50:27;;;;;;;20.08;2.80;;;7.10;99.90;;;;;;4877778;29;20056;-82
2022/04/09 07:52:54;;;;;;;10.90;2.08;;;7.80;99.90;;;;;;4878620;29;20062;-83
2022/04/09 07:55:20;;;;;;;14.82;2.50;;;7.60;99.90;;;;;;4878032;29;20104;-82
2022/04/09 07:57:58;;;;;;;23.65;3.20;;;6.70;99.90;;;;;;4862562;29;20044;-82
2022/04/09 08:00:24;;;;;;;20.88;2.42;;;6.90;99.90;;;;;;4862013;29;20048;-82
2022/04/09 08:02:50;;;;;;;11.70;2.15;;;7.40;99.90;;;;;;4862175;29;20073;-82
2022/04/09 08:05:18;;;;;;;17.63;2.80;;;7.00;99.90;;;;;;4862352;29;20048;-83
2022/04/09 08:07:53;;;;;;;24.50;2.88;;;7.00;99.90;;;;;;4878379;29;20041;-83
2022/04/09 08:10:18;;;;;;;18.35;2.65;;;8.00;99.90;;;;;;4877013;29;20044;-82
2022/04/09 08:12:48;;;;;;;14.10;2.25;;;8.20;99.90;;;;;;4862762;29;20563;-83
2022/04/09 08:15:14;;;;;;;16.83;2.00;;;7.50;99.90;;;;;;4862209;29;20127;-83
2022/04/09 08:17:56;;;;;;;11.05;1.77;;;7.40;99.90;;;;;;4862267;29;20135;-82
2022/04/09 08:20:22;;;;;;;15.88;1.67;;;8.40;99.90;;;;;;4877694;29;20051;-82
2022/04/09 08:22:49;;;;;;;12.93;1.98;;;6.80;99.90;;;;;;4863243;29;20116;-83
2022/04/09 08:25:35;;;;;;;19.52;2.65;;;8.30;99.90;;;;;;4877204;29;20052;-83
2022/04/09 08:28:02;;;;;;;16.17;2.28;;;7.70;99.90;;;;;;4862285;29;20461;-83
2022/04/09 08:30:28;;;;;;;14.23;2.10;;;8.60;99.90;;;;;;4877663;29;20063;-82
2022/04/09 08:33:07;;;;;;;18.92;2.25;;;8.20;99.90;;;;;;4877932;29;20052;-82
2022/04/09 08:35:33;;;;;;;10.23;1.80;;;8.30;99.90;;;;;;4878376;29;20207;-82
2022/04/09 08:37:58;;;;;;;9.50;1.20;;;8.10;99.90;;;;;;4892909;29;20775;-82
2022/04/09 08:40:26;;;;;;;9.35;0.80;;;7.60;99.90;;;;;;4862106;29;20103;-82
2022/04/09 08:43:01;;;;;;;7.10;1.17;;;8.20;99.90;;;;;;4878445;29;20049;-82
2022/04/09 08:45:28;;;;;;;8.73;1.35;;;7.10;99.90;;;;;;4860909;29;20170;-82
2022/04/09 08:47:54;;;;;;;20.05;2.40;;;7.60;99.90;;;;;;4874517;29;20131;-82
2022/04/09 08:50:20;;;;;;;24.73;3.25;;;7.50;99.90;;;;;;4874434;29;20088;-82
2022/04/09 08:53:07;;;;;;;13.85;2.17;;;8.00;99.90;;;;;;4874051;29;20080;-82
2022/04/09 08:55:34;;;;;;;11.73;2.53;;;8.60;99.90;;;;;;4874253;29;20132;-82
2022/04/09 08:58:00;;;;;;;10.77;1.70;;;8.10;99.90;;;;;;4874529;29;20480;-82
2022/04/09 09:00:38;;;;;;;13.60;1.40;;;9.30;99.90;;;;;;4857467;29;20446;-82
2022/04/09 09:03:05;;;;;;;7.35;1.20;;;7.80;99.90;;;;;;4874139;29;20052;-82
2022/04/09 09:05:52;;;;;;;6.90;1.38;;;8.20;99.90;;;;;;4858617;29;20051;-82
2022/04/09 09:08:47;;;;;;;10.50;1.02;;;6.50;99.90;;;;;;4858702;29;20085;-83
2022/04/09 09:11:13;;;;;;;5.82;0.63;;;5.90;99.90;;;;;;4873834;29;20053;-82
2022/04/09 09:13:58;;;;;;;5.22;1.20;;;6.60;99.90;;;;;;4858577;29;20105;-82
2022/04/09 09:16:27;;;;;;;3.95;0.60;;;5.80;99.90;;;;;;4858683;29;20045;-83
2022/04/09 09:19:06;;;;;;;;;;;;;;;;;;;;;
2022/04/09 09:21:41;;;;;;;4.47;0.60;;;5.90;99.90;;;;;;4871835;29;20048;-82
2022/04/09 09:24:20;;;;;;;5.07;0.82;;;5.20;99.90;;;;;;4840859;29;20057;-82
2022/04/09 09:26:45;;;;;;;4.18;0.70;;;5.90;99.90;;;;;;4843217;29;20037;-82
2022/04/09 09:29:33;;;;;;;5.10;0.68;;;6.60;99.90;;;;;;4871954;29;20053;-84
2022/04/09 09:32:00;;;;;;;7.22;0.50;;;6.00;99.90;;;;;;4873138;29;20563;-81
2022/04/09 09:34:27;;;;;;;12.65;1.73;;;7.30;99.90;;;;;;4859066;29;20100;-82
2022/04/09 09:36:52;;;;;;;9.90;1.17;;;6.80;99.90;;;;;;4858276;29;20053;-81
2022/04/09 09:39:28;;;;;;;7.82;1.10;;;6.80;99.90;;;;;;4857121;29;20064;-81
2022/04/09 09:41:56;;;;;;;9.13;1.33;;;7.40;99.90;;;;;;4872040;29;20049;-81
2022/04/09 09:44:25;;;;;;;8.18;1.05;;;8.30;99.90;;;;;;4855903;29;20053;-81
2022/04/09 09:47:08;;;;;;;10.13;2.55;;;7.90;99.90;;;;;;4885106;29;20052;-81
2022/04/09 09:49:40;;;;;;;10.17;1.53;;;8.10;99.90;;;;;;4860609;29;20058;-80
2022/04/09 09:52:30;;;;;;;9.05;1.60;;;8.20;99.90;;;;;;4884644;29;20098;-81
2022/04/09 09:55:00;;;;;;;5.70;1.38;;;7.70;99.90;;;;;;4863857;29;20051;-81
2022/04/09 09:57:38;;;;;;;13.82;1.67;;;7.20;99.90;;;;;;4884381;29;20397;-81
2022/04/09 10:00:07;;;;;;;7.95;1.05;;;6.80;99.90;;;;;;4868631;29;20072;-82
2022/04/09 10:02:37;;;;;;;4.40;0.63;;;6.60;99.90;;;;;;4868388;29;20508;-84
2022/04/09 10:05:07;;;;;;;5.70;0.60;;;6.50;99.90;;;;;;4870404;29;20099;-83
2022/04/09 10:07:34;;;;;;;5.32;0.47;;;6.60;99.90;;;;;;4877619;29;20060;-85
2022/04/09 10:10:03;;;;;;;1.92;0.25;;;6.70;99.90;;;;;;4887788;29;20051;-84
2022/04/09 10:12:29;;;;;;;2.95;0.28;;;6.90;99.90;;;;;;4872014;29;20048;-84
2022/04/09 10:15:16;;;;;;;4.82;0.20;;;8.00;99.90;;;;;;4883543;29;20396;-84
2022/04/09 10:17:43;;;;;;;2.47;0.17;;;7.80;99.90;;;;;;4889861;29;20048;-84
2022/04/09 10:20:26;;;;;;;0.77;0.15;;;7.80;99.90;;;;;;4878559;29;20044;-84
2022/04/09 10:22:58;;;;;;;2.92;0.40;;;7.40;99.90;;;;;;4882079;29;20052;-85
2022/04/09 10:25:41;;;;;;;4.43;0.50;;;7.80;99.90;;;;;;4884900;29;20411;-85
2022/04/09 10:28:07;;;;;;;4.38;0.50;;;6.90;99.90;;;;;;4875145;29;20494;-85
2022/04/09 10:30:51;;;;;;;3.67;0.50;;;7.20;99.90;;;;;;4875199;29;20058;-84
2022/04/09 10:33:23;;;;;;;4.97;1.25;;;7.30;99.90;;;;;;4887080;29;20127;-84
2022/04/09 10:36:02;;;;;;;6.30;0.73;;;7.80;99.90;;;;;;4896138;29;20062;-84
2022/04/09 10:38:28;;;;;;;9.63;3.25;;;7.40;99.90;;;;;;4897883;29;20056;-84
2022/04/09 10:40:55;;;;;;;6.13;0.50;;;8.20;99.90;;;;;;4894652;29;20062;-84
2022/04/09 10:43:37;;;;;;;11.95;1.45;;;7.60;99.90;;;;;;4895771;29;20409;-84
2022/04/09 10:46:04;;;;;;;7.15;0.80;;;8.00;99.90;;;;;;4873287;29;20067;-85
2022/04/09 10:48:32;;;;;;;5.43;0.80;;;8.90;99.90;;;;;;4874042;29;20497;-84
2022/04/09 10:51:18;;;;;;;5.28;0.90;;;7.90;99.90;;;;;;4890082;29;20056;-84
2022/04/09 10:53:47;;;;;;;7.55;1.10;;;8.30;99.90;;;;;;4892725;29;20064;-84
2022/04/09 10:56:28;;;;;;;12.52;1.55;;;8.80;99.90;;;;;;4872903;29;20541;-84
2022/04/09 10:59:04;;;;;;;5.80;1.10;;;8.40;99.90;;;;;;4879772;29;20048;-85
2022/04/09 11:01:46;;;;;;;4.65;0.93;;;8.90;99.90;;;;;;4881604;29;20052;-85
2022/04/09 11:04:35;;;;;;;4.38;0.90;;;7.90;99.90;;;;;;4871531;29;20128;-85
2022/04/09 11:07:04;;;;;;;6.25;0.85;;;7.90;99.90;;;;;;4864737;29;20121;-85
2022/04/09 11:09:56;;;;;;;6.07;0.73;;;8.70;99.90;;;;;;4880196;29;20059;-84
2022/04/09 11:12:43;;;;;;;7.53;1.00;;;8.10;99.90;;;;;;4875124;29;20507;-84
2022/04/09 11:15:10;;;;;;;9.57;1.30;;;8.30;99.90;;;;;;4875635;29;20036;-85
2022/04/09 11:17:47;;;;;;;10.38;2.13;;;8.40;99.90;;;;;;4867643;29;20143;-84
2022/04/09 11:20:14;;;;;;;10.05;1.55;;;8.40;99.90;;;;;;4887871;29;20059;-82
2022/04/09 11:22:42;;;;;;;13.77;1.67;;;9.00;99.90;;;;;;4883503;29;20048;-86
2022/04/09 11:25:58;;;;;;;9.30;1.50;;;8.90;99.90;;;;;;4869646;29;20409;-82
2022/04/09 11:28:23;;;;;;;13.85;3.00;;;8.50;99.90;;;;;;4893007;29;20091;-85
2022/04/09 11:31:15;;;;;;;8.95;1.48;;;8.70;99.90;;;;;;4897712;29;20453;-88
2022/04/09 11:34:22;;;;;;;16.17;1.85;;;8.70;99.90;;;;;;4904265;29;20061;-86
2022/04/09 11:37:21;;;;;;;9.57;1.65;;;8.20;99.90;;;;;;4871724;29;20180;-82
2022/04/09 11:39:49;;;;;;;18.45;2.08;;;8.40;99.90;;;;;;4877892;29;20055;-84
2022/04/09 11:42:18;;;;;;;17.17;1.80;;;8.30;99.90;;;;;;4877507;29;20052;-84
2022/04/09 11:44:56;;;;;;;5.95;1.45;;;8.00;99.90;;;;;;4892444;29;20049;-84
2022/04/09 11:47:24;;;;;;;11.48;1.40;;;7.80;99.90;;;;;;4869280;29;20057;-84
2022/04/09 11:50:08;;;;;;;8.27;1.25;;;7.90;99.90;;;;;;4873359;29;20056;-84
2022/04/09 11:52:46;;;;;;;10.18;1.30;;;7.40;99.90;;;;;;4879307;29;20067;-85
2022/04/09 11:55:21;;;;;;;11.07;1.42;;;8.40;99.90;;;;;;4886956;29;20072;-82
2022/04/09 11:57:49;;;;;;;7.85;1.10;;;9.50;99.90;;;;;;4868049;29;20092;-83
2022/04/09 12:00:42;;;;;;;11.02;1.92;;;8.60;99.90;;;;;;4878980;29;20060;-88
2022/04/09 12:03:17;;;;;;;7.68;1.27;;;8.50;99.90;;;;;;4876777;29;20041;-87
2022/04/09 12:05:46;;;;;;;8.00;1.10;;;8.40;99.90;;;;;;4861905;29;20088;-88
2022/04/09 12:08:31;;;;;;;17.25;1.70;;;9.10;99.90;;;;;;4876859;29;20044;-83
2022/04/09 12:11:01;;;;;;;16.10;1.98;;;8.30;99.90;;;;;;4878721;29;20413;-85
2022/04/09 12:13:38;;;;;;;9.57;1.48;;;8.40;99.90;;;;;;4865404;29;20063;-84
2022/04/09 12:16:19;;;;;;;12.15;2.45;;;8.80;99.90;;;;;;4898117;29;20047;-87
2022/04/09 12:19:06;;;;;;;9.02;1.65;;;8.90;99.90;;;;;;4870380;29;20040;-87
2022/04/09 12:21:32;;;;;;;9.77;1.42;;;8.80;99.90;;;;;;4887114;29;20115;-85
2022/04/09 12:24:12;;;;;;;11.23;1.77;;;8.90;99.90;;;;;;4873301;29;20049;-84
2022/04/09 12:26:40;;;;;;;11.80;1.80;;;8.90;99.90;;;;;;4878793;29;20044;-85
2022/04/09 12:29:23;;;;;;;12.48;1.73;;;9.10;99.90;;;;;;4865779;29;20049;-86
2022/04/09 12:31:51;;;;;;;9.02;1.50;;;10.00;99.90;;;;;;4887368;29;20063;-84
2022/04/09 12:34:30;;;;;;;7.22;2.10;;;10.30;99.90;;;;;;4859042;29;20045;-83
2022/04/09 12:37:14;;;;;;;12.05;1.88;;;9.10;99.90;;;;;;4868573;29;20068;-84
2022/04/09 12:39:40;;;;;;;;;;;8.80;99.90;;;;;;4845033;29;20060;-83
2022/04/09 12:42:06;;;;;;;4.97;1.00;;;8.80;99.90;;;;;;4859380;29;19935;-83
2022/04/09 12:44:38;;;;;;;7.38;1.08;;;8.50;99.90;;;;;;4843294;29;20048;-83
2022/04/09 12:47:05;;;;;;;11.30;1.55;;;9.10;99.90;;;;;;4859215;29;20071;-83
2022/04/09 12:49:35;;;;;;;10.52;1.52;;;8.40;99.90;;;;;;4874905;29;20049;-83
2022/04/09 12:52:16;;;;;;;8.20;1.45;;;8.50;99.90;;;;;;4858050;29;20419;-83
2022/04/09 12:54:42;;;;;;;11.35;1.23;;;8.50;99.90;;;;;;4844224;29;20088;-83
2022/04/09 12:57:11;;;;;;;8.82;1.50;;;8.70;99.90;;;;;;4859255;29;20501;-83
2022/04/09 12:59:49;;;;;;;12.25;1.58;;;8.30;99.90;;;;;;4858199;29;20057;-82
2022/04/09 13:02:15;;;;;;;10.45;1.50;;;8.90;99.90;;;;;;4869227;29;20140;-83
2022/04/09 13:04:41;;;;;;;8.25;1.10;;;9.90;99.90;;;;;;4877839;29;20056;-82
2022/04/09 13:07:22;;;;;;;7.80;1.00;;;9.60;99.90;;;;;;4876979;29;20059;-82
2022/04/09 13:09:48;;;;;;;10.98;1.27;;;9.10;99.90;;;;;;4879289;29;20063;-83